createdAt,value
2019-02-28T00:00:55.956Z,4.20
2019-02-28T00:03:22.461Z,4.97
2019-02-28T00:05:48.736Z,5.50
2019-02-28T00:08:16.005Z,4.85
2019-02-28T00:10:42.119Z,5.00
2019-02-28T00:13:08.338Z,5.12
2019-02-28T00:15:34.537Z,5.22
2019-02-28T00:18:00.743Z,4.72
2019-02-28T00:20:29.151Z,4.97
2019-02-28T00:22:55.012Z,4.80
2019-02-28T00:25:21.155Z,5.10
2019-02-28T00:27:47.412Z,5.03
2019-02-28T00:30:14.789Z,4.90
2019-02-28T00:32:40.947Z,4.87
2019-02-28T00:35:12.799Z,5.50
2019-02-28T00:37:35.782Z,4.90
2019-02-28T00:40:02.300Z,4.95
2019-02-28T00:42:29.737Z,5.00
2019-02-28T00:44:55.895Z,5.22
2019-02-28T00:47:22.180Z,5.03
2019-02-28T00:49:48.468Z,5.22
2019-02-28T00:52:14.698Z,4.62
2019-02-28T00:54:44.348Z,4.70
2019-02-28T00:57:09.934Z,4.92
2019-02-28T00:59:36.218Z,4.78
2019-02-28T01:02:02.625Z,4.78
2019-02-28T01:04:30.028Z,4.65
2019-02-28T01:06:56.952Z,4.60
2019-02-28T01:09:23.098Z,4.55
2019-02-28T01:11:49.300Z,5.25
2019-02-28T01:14:15.564Z,5.87
2019-02-28T01:16:41.790Z,5.30
2019-02-28T01:19:09.070Z,5.37
2019-02-28T01:21:36.134Z,5.20
2019-02-28T01:24:02.315Z,5.37
2019-02-28T01:26:30.521Z,5.08
2019-02-28T01:29:01.525Z,5.83
2019-02-28T01:31:24.822Z,5.70
2019-02-28T01:33:51.039Z,5.58
2019-02-28T01:36:17.140Z,5.65
2019-02-28T01:38:44.525Z,5.70
2019-02-28T01:41:11.186Z,6.22
2019-02-28T01:43:38.167Z,6.67
2019-02-28T01:46:04.520Z,6.78
2019-02-28T01:48:30.716Z,6.72
2019-02-28T01:50:56.833Z,7.17
2019-02-28T01:53:23.056Z,6.85
2019-02-28T01:55:49.179Z,6.45
2019-02-28T01:58:16.874Z,7.08
2019-02-28T02:00:43.484Z,6.50
2019-02-28T02:03:10.196Z,7.10
2019-02-28T02:05:36.415Z,7.20
2019-02-28T02:08:06.538Z,6.80
2019-02-28T02:10:31.015Z,7.40
2019-02-28T02:12:57.186Z,6.78
2019-02-28T02:15:23.410Z,7.10
2019-02-28T02:17:49.647Z,6.92
2019-02-28T02:20:16.081Z,6.37
2019-02-28T02:22:44.613Z,7.22
2019-02-28T02:25:10.913Z,6.87
2019-02-28T02:27:37.342Z,6.65
2019-02-28T02:30:16.423Z,7.12
2019-02-28T02:32:43.808Z,6.50
2019-02-28T02:35:10.272Z,6.90
2019-02-28T02:37:36.650Z,6.55
2019-02-28T02:40:09.403Z,6.85
2019-02-28T02:42:35.625Z,6.87
2019-02-28T02:45:04.931Z,7.12
2019-02-28T02:47:32.477Z,7.00
2019-02-28T02:49:58.254Z,7.15
2019-02-28T02:52:29.981Z,6.90
2019-02-28T02:54:53.024Z,6.42
2019-02-28T02:57:19.436Z,7.78
2019-02-28T02:59:45.541Z,6.87
2019-02-28T03:02:11.857Z,6.75
2019-02-28T03:04:38.011Z,6.83
2019-02-28T03:07:04.407Z,7.55
2019-02-28T03:09:30.658Z,7.75
2019-02-28T03:11:57.725Z,7.00
2019-02-28T03:14:24.956Z,6.72
2019-02-28T03:16:51.054Z,7.30
2019-02-28T03:19:17.326Z,6.72
2019-02-28T03:21:47.762Z,7.17
2019-02-28T03:24:15.206Z,6.65
2019-02-28T03:26:41.895Z,7.00
2019-02-28T03:29:08.937Z,6.95
2019-02-28T03:31:35.364Z,7.37
2019-02-28T03:34:10.039Z,6.75
2019-02-28T03:36:30.032Z,6.87
2019-02-28T03:38:56.411Z,6.83
2019-02-28T03:41:22.712Z,7.60
2019-02-28T03:43:48.931Z,7.60
2019-02-28T03:46:15.233Z,7.78
2019-02-28T03:48:41.576Z,7.42
2019-02-28T03:51:07.705Z,7.78
2019-02-28T03:53:33.913Z,7.20
2019-02-28T03:56:00.082Z,7.37
2019-02-28T03:58:26.264Z,8.68
2019-02-28T04:00:52.629Z,7.42
2019-02-28T04:03:19.018Z,7.65
2019-02-28T04:05:45.359Z,7.40
2019-02-28T04:08:11.528Z,7.47
2019-02-28T04:10:37.823Z,7.62
2019-02-28T04:13:04.004Z,7.67
2019-02-28T04:15:30.316Z,7.03
2019-02-28T04:17:57.728Z,7.40
2019-02-28T04:20:23.986Z,7.15
2019-02-28T04:22:50.370Z,7.37
2019-02-28T04:25:22.833Z,8.15
2019-02-28T04:27:44.722Z,7.25
2019-02-28T04:30:12.071Z,7.92
2019-02-28T04:32:38.304Z,7.22
2019-02-28T04:35:04.735Z,7.65
2019-02-28T04:37:30.926Z,8.38
2019-02-28T04:39:57.195Z,7.83
2019-02-28T04:42:23.414Z,7.37
2019-02-28T04:44:51.956Z,7.67
2019-02-28T04:47:17.694Z,7.47
2019-02-28T04:49:43.943Z,7.95
2019-02-28T04:52:11.769Z,8.40
2019-02-28T04:54:38.225Z,8.48
2019-02-28T04:57:04.440Z,8.70
2019-02-28T04:59:31.560Z,8.55
2019-02-28T05:01:58.827Z,8.10
2019-02-28T05:04:25.007Z,8.43
2019-02-28T05:06:52.165Z,8.53
2019-02-28T05:09:19.254Z,8.40
2019-02-28T05:11:45.505Z,8.03
2019-02-28T05:14:11.607Z,9.00
2019-02-28T05:16:37.814Z,8.55
2019-02-28T05:19:04.019Z,8.50
2019-02-28T05:21:30.273Z,8.28
2019-02-28T05:23:56.398Z,8.70
2019-02-28T05:26:23.508Z,8.33
2019-02-28T05:28:50.703Z,8.28
2019-02-28T05:31:16.860Z,7.70
2019-02-28T05:33:44.135Z,8.20
2019-02-28T05:36:10.288Z,8.88
2019-02-28T05:38:36.399Z,9.18
2019-02-28T05:41:02.633Z,9.38
2019-02-28T05:43:29.190Z,8.58
2019-02-28T05:45:56.963Z,8.45
2019-02-28T05:48:23.199Z,8.68
2019-02-28T05:50:52.821Z,8.35
2019-02-28T05:53:17.419Z,8.40
2019-02-28T05:55:44.686Z,9.00
2019-02-28T05:58:10.923Z,8.95
2019-02-28T06:00:37.777Z,8.50
2019-02-28T06:03:04.065Z,8.93
2019-02-28T06:05:30.213Z,8.90
2019-02-28T06:07:56.415Z,8.43
2019-02-28T06:10:24.673Z,8.63
2019-02-28T06:12:51.796Z,9.13
2019-02-28T06:15:18.069Z,9.35
2019-02-28T06:17:44.315Z,7.85
2019-02-28T06:20:11.169Z,10.08
2019-02-28T06:22:37.559Z,9.13
2019-02-28T06:25:06.301Z,8.75
2019-02-28T06:27:41.195Z,9.25
2019-02-28T06:30:00.700Z,9.65
2019-02-28T06:32:27.438Z,8.78
2019-02-28T06:34:54.721Z,9.73
2019-02-28T06:37:20.869Z,9.60
2019-02-28T06:39:47.079Z,9.50
2019-02-28T06:42:13.260Z,10.00
2019-02-28T06:44:39.420Z,10.43
2019-02-28T06:47:05.668Z,8.78
2019-02-28T06:49:32.041Z,9.83
2019-02-28T06:51:58.237Z,10.23
2019-02-28T06:54:24.486Z,9.60
2019-02-28T06:56:54.004Z,9.78
2019-02-28T06:59:18.870Z,10.25
2019-02-28T07:01:45.165Z,10.28
2019-02-28T07:04:14.442Z,9.45
2019-02-28T07:06:39.533Z,11.22
2019-02-28T07:09:05.818Z,10.18
2019-02-28T07:11:32.797Z,10.63
2019-02-28T07:13:59.012Z,11.05
2019-02-28T07:16:25.245Z,10.20
2019-02-28T07:18:53.793Z,11.30
2019-02-28T07:21:19.594Z,9.95
2019-02-28T07:23:45.830Z,10.85
2019-02-28T07:26:11.929Z,10.53
2019-02-28T07:28:38.238Z,10.65
2019-02-28T07:31:04.424Z,10.80
2019-02-28T07:33:30.626Z,11.18
2019-02-28T07:35:56.731Z,10.65
2019-02-28T07:38:25.638Z,12.40
2019-02-28T07:40:51.008Z,11.83
2019-02-28T07:43:17.189Z,12.47
2019-02-28T07:45:43.369Z,12.65
2019-02-28T07:48:09.588Z,11.20
2019-02-28T07:50:35.881Z,12.20
2019-02-28T07:53:02.161Z,11.73
2019-02-28T07:55:30.476Z,12.03
2019-02-28T07:57:56.755Z,11.38
2019-02-28T08:00:24.041Z,11.22
2019-02-28T08:02:50.164Z,11.70
2019-02-28T08:05:16.802Z,11.68
2019-02-28T08:07:43.077Z,11.38
2019-02-28T08:10:18.473Z,13.18
2019-02-28T08:12:44.758Z,11.55
2019-02-28T08:15:20.974Z,12.75
2019-02-28T08:17:45.007Z,12.58
2019-02-28T08:20:11.512Z,13.32
2019-02-28T08:22:37.940Z,12.85
2019-02-28T08:25:08.755Z,13.43
2019-02-28T08:30:01.367Z,12.78
2019-02-28T08:32:28.117Z,13.28
2019-02-28T08:34:55.587Z,13.55
2019-02-28T08:37:24.652Z,14.83
2019-02-28T08:39:50.971Z,14.53
2019-02-28T08:42:17.064Z,15.23
2019-02-28T08:44:43.294Z,14.03
2019-02-28T08:47:09.417Z,15.05
2019-02-28T08:49:42.179Z,16.10
2019-02-28T08:52:05.622Z,16.93
2019-02-28T08:54:31.991Z,16.25
2019-02-28T08:56:58.217Z,17.07
2019-02-28T08:59:24.441Z,17.27
2019-02-28T09:01:50.567Z,18.02
2019-02-28T09:04:16.811Z,18.98
2019-02-28T09:06:42.954Z,18.52
2019-02-28T09:09:09.629Z,18.35
2019-02-28T09:11:35.858Z,19.57
2019-02-28T09:14:02.142Z,19.27
2019-02-28T09:16:28.695Z,22.05
2019-02-28T09:19:00.482Z,21.30
2019-02-28T09:21:22.979Z,21.73
2019-02-28T09:23:49.131Z,21.07
2019-02-28T09:26:15.555Z,21.80
2019-02-28T09:28:44.356Z,19.67
2019-02-28T09:31:10.040Z,22.60
2019-02-28T09:33:36.206Z,21.45
2019-02-28T09:36:02.613Z,20.88
2019-02-28T09:38:30.099Z,20.00
2019-02-28T09:40:56.372Z,20.95
2019-02-28T09:43:23.843Z,20.65
2019-02-28T09:45:51.036Z,19.95
2019-02-28T09:48:17.213Z,18.23
2019-02-28T09:50:43.340Z,18.75
2019-02-28T09:53:15.537Z,19.48
2019-02-28T09:55:40.003Z,14.70
2019-02-28T09:58:06.118Z,18.57
2019-02-28T10:00:33.464Z,18.70
2019-02-28T10:02:59.569Z,18.48
2019-02-28T10:05:25.912Z,17.82
2019-02-28T10:07:52.308Z,17.57
2019-02-28T10:10:22.007Z,18.52
2019-02-28T10:12:48.530Z,20.00
2019-02-28T10:15:16.801Z,18.32
2019-02-28T10:17:43.110Z,19.00
2019-02-28T10:20:16.373Z,18.80
2019-02-28T10:22:44.361Z,18.50
2019-02-28T10:25:13.365Z,19.12
2019-02-28T10:27:39.790Z,19.73
2019-02-28T10:30:18.173Z,18.95
2019-02-28T10:32:49.278Z,19.00
2019-02-28T10:35:21.869Z,19.45
2019-02-28T10:37:48.138Z,19.30
2019-02-28T10:40:17.731Z,18.23
2019-02-28T10:42:45.030Z,19.80
2019-02-28T10:45:13.431Z,20.25
2019-02-28T10:47:46.875Z,19.15
2019-02-28T10:50:32.154Z,21.00
2019-02-28T10:52:55.508Z,19.32
2019-02-28T10:55:22.444Z,19.20
2019-02-28T10:57:49.830Z,18.40
2019-02-28T11:00:23.979Z,20.05
2019-02-28T11:02:53.556Z,21.77
2019-02-28T11:05:21.638Z,20.75
2019-02-28T11:07:48.077Z,18.92
2019-02-28T11:10:14.509Z,19.50
2019-02-28T11:12:40.720Z,20.12
2019-02-28T11:15:10.424Z,20.32
2019-02-28T11:17:36.365Z,20.10
2019-02-28T11:20:06.377Z,20.92
2019-02-28T11:22:32.683Z,20.72
2019-02-28T11:25:01.024Z,21.65
2019-02-28T11:27:27.582Z,21.10
2019-02-28T11:29:53.969Z,21.30
2019-02-28T11:32:20.670Z,20.88
2019-02-28T11:34:48.687Z,20.88
2019-02-28T11:37:15.245Z,20.68
2019-02-28T11:39:41.638Z,21.55
2019-02-28T11:42:10.999Z,22.58
2019-02-28T11:44:37.458Z,23.83
2019-02-28T11:47:03.778Z,20.62
2019-02-28T11:49:30.091Z,22.48
2019-02-28T11:51:56.365Z,21.12
2019-02-28T11:54:22.740Z,20.72
2019-02-28T11:56:49.262Z,21.90
2019-02-28T11:59:15.597Z,22.02
2019-02-28T12:01:42.450Z,22.77
2019-02-28T12:04:10.130Z,23.00
2019-02-28T12:06:36.309Z,22.60
2019-02-28T12:09:04.385Z,21.40
2019-02-28T12:11:33.536Z,21.83
2019-02-28T12:14:00.333Z,22.58
2019-02-28T12:16:26.660Z,21.73
2019-02-28T12:18:52.845Z,21.52
2019-02-28T12:21:19.081Z,21.70
2019-02-28T12:23:45.206Z,21.62
2019-02-28T12:26:14.391Z,21.33
2019-02-28T12:28:39.576Z,21.95
2019-02-28T12:31:06.506Z,22.15
2019-02-28T12:33:32.702Z,22.77
2019-02-28T12:35:59.026Z,21.33
2019-02-28T12:38:28.297Z,22.62
2019-02-28T12:40:53.623Z,21.42
2019-02-28T12:43:20.023Z,21.00
2019-02-28T12:45:47.466Z,23.22
2019-02-28T12:48:14.690Z,20.25
2019-02-28T12:50:41.234Z,20.97
2019-02-28T12:53:09.008Z,21.07
2019-02-28T12:55:38.785Z,21.85
2019-02-28T12:58:04.102Z,22.32
2019-02-28T13:00:33.556Z,20.72
2019-02-28T13:02:59.852Z,20.87
2019-02-28T13:05:26.279Z,19.62
2019-02-28T13:07:52.562Z,20.82
2019-02-28T13:10:26.756Z,18.67
2019-02-28T13:12:49.881Z,21.15
2019-02-28T13:15:17.470Z,20.97
2019-02-28T13:17:44.063Z,22.30
2019-02-28T13:20:12.077Z,22.00
2019-02-28T13:22:38.420Z,21.27
2019-02-28T13:25:07.395Z,22.48
2019-02-28T13:27:33.655Z,20.80
2019-02-28T13:29:59.768Z,21.02
2019-02-28T13:32:25.997Z,21.42
2019-02-28T13:34:52.111Z,20.82
2019-02-28T13:37:18.440Z,22.37
2019-02-28T13:39:44.801Z,22.27
2019-02-28T13:42:12.266Z,21.55
2019-02-28T13:44:38.579Z,22.65
2019-02-28T13:47:09.438Z,20.57
2019-02-28T13:49:33.028Z,19.75
2019-02-28T13:51:59.320Z,20.10
2019-02-28T13:54:26.950Z,20.00
2019-02-28T13:56:53.323Z,20.57
2019-02-28T13:59:19.553Z,18.67
2019-02-28T14:01:45.668Z,19.17
2019-02-28T14:04:11.888Z,19.05
2019-02-28T14:06:38.070Z,19.75
2019-02-28T14:09:05.895Z,17.37
2019-02-28T14:11:32.216Z,20.02
2019-02-28T14:13:58.523Z,21.25
2019-02-28T14:16:26.924Z,19.32
2019-02-28T14:18:54.647Z,22.67
2019-02-28T14:21:21.301Z,27.87
2019-02-28T14:23:47.943Z,26.57
2019-02-28T14:26:14.828Z,27.42
2019-02-28T14:28:41.568Z,27.75
2019-02-28T14:31:07.862Z,25.57
2019-02-28T14:33:33.997Z,23.62
2019-02-28T14:36:00.607Z,24.75
2019-02-28T14:38:29.465Z,27.40
2019-02-28T14:40:55.461Z,26.75
2019-02-28T14:43:21.719Z,24.60
2019-02-28T14:45:48.155Z,23.50
2019-02-28T14:48:14.406Z,23.05
2019-02-28T14:50:40.696Z,25.17
2019-02-28T14:53:13.082Z,23.38
2019-02-28T14:55:37.417Z,24.27
2019-02-28T14:58:03.906Z,23.35
2019-02-28T15:00:31.804Z,23.47
2019-02-28T15:03:02.873Z,23.45
2019-02-28T15:05:32.238Z,24.70
2019-02-28T15:07:58.858Z,22.73
2019-02-28T15:10:27.384Z,24.43
2019-02-28T15:12:55.346Z,24.45
2019-02-28T15:15:22.484Z,25.37
2019-02-28T15:17:48.797Z,23.60
2019-02-28T15:20:15.107Z,24.45
2019-02-28T15:22:41.476Z,25.60
2019-02-28T15:25:27.752Z,23.73
2019-02-28T15:27:54.018Z,24.23
2019-02-28T15:30:34.902Z,23.50
2019-02-28T15:33:01.299Z,26.12
2019-02-28T15:35:27.619Z,23.98
2019-02-28T15:37:53.905Z,24.57
2019-02-28T15:40:29.564Z,23.20
2019-02-28T15:42:55.689Z,25.82
2019-02-28T15:45:21.993Z,24.70
2019-02-28T15:47:48.160Z,26.12
2019-02-28T15:50:17.835Z,24.75
2019-02-28T15:52:45.177Z,25.20
2019-02-28T15:55:13.846Z,26.12
2019-02-28T15:57:40.223Z,24.98
2019-02-28T16:00:15.576Z,25.75
2019-02-28T16:02:43.041Z,25.20
2019-02-28T16:05:09.486Z,26.42
2019-02-28T16:07:35.808Z,25.85
2019-02-28T16:10:02.316Z,26.30
2019-02-28T16:12:28.625Z,27.15
2019-02-28T16:14:55.066Z,26.65
2019-02-28T16:17:21.369Z,27.07
2019-02-28T16:19:47.499Z,26.48
2019-02-28T16:22:14.640Z,26.80
2019-02-28T16:24:42.629Z,29.70
2019-02-28T16:27:09.894Z,27.75
2019-02-28T16:29:36.891Z,34.53
2019-02-28T16:32:07.553Z,37.05
2019-02-28T16:34:34.303Z,31.00
2019-02-28T16:37:01.959Z,32.58
2019-02-28T16:39:28.854Z,27.87
2019-02-28T16:41:56.105Z,29.90
2019-02-28T16:44:22.793Z,27.65
2019-02-28T16:46:51.556Z,29.35
2019-02-28T16:49:18.064Z,26.52
2019-02-28T16:51:45.362Z,28.83
2019-02-28T16:54:12.446Z,26.37
2019-02-28T16:56:39.554Z,26.57
2019-02-28T16:59:07.895Z,27.73
2019-02-28T17:01:34.481Z,25.97
2019-02-28T17:04:01.465Z,26.55
2019-02-28T17:06:28.143Z,27.62
2019-02-28T17:08:56.946Z,27.55
2019-02-28T17:11:23.606Z,26.07
2019-02-28T17:13:52.606Z,26.12
2019-02-28T17:16:20.770Z,25.20
2019-02-28T17:18:47.203Z,26.20
2019-02-28T17:21:18.023Z,26.15
2019-02-28T17:23:45.125Z,27.20
2019-02-28T17:26:12.244Z,27.55
2019-02-28T17:28:51.013Z,26.93
2019-02-28T17:31:34.719Z,27.13
2019-02-28T17:34:01.813Z,27.60
2019-02-28T17:36:28.181Z,26.20
2019-02-28T17:38:55.049Z,27.60
2019-02-28T17:41:22.261Z,44.90
2019-02-28T17:44:22.818Z,41.05
2019-02-28T17:46:52.730Z,31.95
2019-02-28T17:49:35.344Z,22.13
2019-02-28T17:52:19.982Z,29.37
2019-02-28T17:55:02.010Z,29.40
2019-02-28T17:57:36.153Z,29.45
2019-02-28T18:00:06.326Z,30.75
2019-02-28T18:02:54.925Z,28.98
2019-02-28T18:05:41.541Z,28.17
2019-02-28T18:08:19.751Z,29.50
2019-02-28T18:11:15.607Z,27.50
2019-02-28T18:14:12.662Z,30.25
2019-02-28T18:16:58.270Z,29.70
2019-02-28T18:19:33.237Z,28.70
2019-02-28T18:22:31.625Z,30.37
2019-02-28T18:25:01.540Z,28.77
2019-02-28T18:27:43.633Z,20.20
2019-02-28T18:30:29.751Z,29.40
2019-02-28T18:32:56.368Z,29.00
2019-02-28T18:35:22.467Z,27.48
2019-02-28T18:37:49.087Z,27.20
2019-02-28T18:40:15.263Z,26.62
2019-02-28T18:42:41.428Z,27.82
2019-02-28T18:45:09.487Z,29.02
2019-02-28T18:47:39.587Z,28.35
2019-02-28T18:50:05.415Z,26.93
2019-02-28T18:52:31.792Z,27.40
2019-02-28T18:55:05.727Z,28.00
2019-02-28T18:57:26.189Z,26.33
2019-02-28T18:59:52.456Z,28.07
2019-02-28T19:02:18.778Z,28.67
2019-02-28T19:04:44.940Z,28.38
2019-02-28T19:07:11.291Z,27.90
2019-02-28T19:09:37.491Z,27.77
2019-02-28T19:12:03.953Z,27.90
2019-02-28T19:14:30.141Z,25.17
2019-02-28T19:16:56.480Z,26.17
2019-02-28T19:19:22.691Z,24.87
2019-02-28T19:21:49.024Z,26.65
2019-02-28T19:24:15.112Z,24.55
2019-02-28T19:26:41.345Z,26.10
2019-02-28T19:29:07.605Z,22.60
2019-02-28T19:31:33.756Z,24.65
2019-02-28T19:33:59.911Z,24.52
2019-02-28T19:36:26.162Z,24.30
2019-02-28T19:38:52.447Z,24.70
2019-02-28T19:41:18.708Z,24.43
2019-02-28T19:43:44.977Z,24.27
2019-02-28T19:46:11.229Z,23.02
2019-02-28T19:48:37.507Z,24.57
2019-02-28T19:51:03.982Z,22.55
2019-02-28T19:53:30.213Z,24.12
2019-02-28T19:55:56.840Z,23.57
2019-02-28T19:58:23.346Z,23.80
2019-02-28T20:00:49.846Z,23.80
2019-02-28T20:03:16.303Z,24.75
2019-02-28T20:05:42.547Z,24.05
2019-02-28T20:08:09.148Z,24.50
2019-02-28T20:10:35.420Z,23.12
2019-02-28T20:13:02.048Z,23.05
2019-02-28T20:15:30.077Z,22.27
2019-02-28T20:17:56.586Z,22.62
2019-02-28T20:20:25.271Z,23.60
2019-02-28T20:22:51.578Z,23.60
2019-02-28T20:25:18.061Z,23.42
2019-02-28T20:27:44.199Z,23.15
2019-02-28T20:30:15.854Z,21.97
2019-02-28T20:32:42.356Z,22.05
2019-02-28T20:35:09.341Z,22.00
2019-02-28T20:37:35.694Z,22.62
2019-02-28T20:40:07.306Z,21.62
2019-02-28T20:42:33.529Z,22.37
2019-02-28T20:44:59.761Z,22.27
2019-02-28T20:47:25.862Z,22.62
2019-02-28T20:49:53.199Z,22.45
2019-02-28T20:52:19.608Z,21.40
2019-02-28T20:54:46.169Z,21.68
2019-02-28T20:57:12.283Z,20.12
2019-02-28T20:59:38.685Z,21.33
2019-02-28T21:02:05.074Z,21.33
2019-02-28T21:04:31.295Z,23.00
2019-02-28T21:06:57.585Z,20.82
2019-02-28T21:09:24.421Z,22.25
2019-02-28T21:11:50.675Z,21.65
2019-02-28T21:14:17.071Z,20.55
2019-02-28T21:16:43.392Z,20.85
2019-02-28T21:19:10.554Z,20.85
2019-02-28T21:21:36.810Z,21.02
2019-02-28T21:24:03.229Z,21.42
2019-02-28T21:26:29.552Z,21.00
2019-02-28T21:28:55.765Z,21.12
2019-02-28T21:31:22.278Z,20.92
2019-02-28T21:33:48.528Z,20.60
2019-02-28T21:36:15.126Z,21.40
2019-02-28T21:38:41.334Z,22.17
2019-02-28T21:41:07.958Z,22.07
2019-02-28T21:43:34.156Z,21.82
2019-02-28T21:46:00.491Z,22.15
2019-02-28T21:48:26.769Z,25.43
2019-02-28T21:50:53.050Z,25.00
2019-02-28T21:53:19.304Z,24.63
2019-02-28T21:55:45.637Z,23.12
2019-02-28T21:58:11.857Z,25.05
2019-02-28T22:00:38.086Z,25.50
2019-02-28T22:03:04.308Z,25.15
2019-02-28T22:05:30.588Z,24.67
2019-02-28T22:07:57.243Z,26.57
2019-02-28T22:10:23.558Z,25.90
2019-02-28T22:12:49.811Z,27.22
2019-02-28T22:15:20.421Z,27.80
2019-02-28T22:17:49.719Z,29.12
2019-02-28T22:20:16.033Z,26.70
2019-02-28T22:22:42.333Z,28.35
2019-02-28T22:25:10.593Z,25.50
2019-02-28T22:27:36.727Z,25.12
2019-02-28T22:30:26.530Z,23.90
2019-02-28T22:32:54.788Z,24.05
2019-02-28T22:35:23.057Z,24.02
2019-02-28T22:37:49.625Z,23.80
2019-02-28T22:40:15.865Z,25.43
2019-02-28T22:42:42.287Z,27.07
2019-02-28T22:45:08.608Z,26.25
2019-02-28T22:47:34.724Z,28.77
2019-02-28T22:50:01.050Z,29.40
2019-02-28T22:52:28.321Z,30.68
2019-02-28T22:54:54.599Z,33.45
2019-02-28T22:57:20.830Z,36.58
2019-02-28T22:59:47.260Z,34.33
2019-02-28T23:02:13.592Z,37.28
2019-02-28T23:04:39.847Z,35.08
2019-02-28T23:07:06.247Z,36.65
2019-02-28T23:09:32.475Z,35.50
2019-02-28T23:11:58.597Z,37.33
2019-02-28T23:14:24.940Z,36.28
2019-02-28T23:16:51.082Z,37.70
2019-02-28T23:19:17.296Z,39.00
2019-02-28T23:21:43.451Z,39.03
2019-02-28T23:24:09.608Z,40.23
2019-02-28T23:26:57.750Z,39.33
2019-02-28T23:29:25.526Z,39.83
2019-02-28T23:31:58.593Z,38.20
2019-02-28T23:34:28.491Z,32.42
2019-02-28T23:36:54.605Z,41.20
2019-02-28T23:39:20.835Z,40.45
2019-02-28T23:41:46.939Z,38.80
2019-02-28T23:44:13.241Z,40.30
2019-02-28T23:46:39.420Z,36.45
2019-02-28T23:49:05.669Z,36.70
2019-02-28T23:51:32.256Z,39.23
2019-02-28T23:53:58.605Z,36.75
2019-02-28T23:56:24.767Z,35.88
2019-02-28T23:58:50.951Z,33.80
